sensor_id;sensor_type;location;lat;lon;timestamp;P1;durP1;ratioP1;P2;durP2;ratioP2
45728;SDS011;31439;53.512;10.206;2024-03-08T00:01:56;20.55;;;12.38;;
45728;SDS011;31439;53.512;10.206;2024-03-08T00:04:23;24.70;;;12.88;;
45728;SDS011;31439;53.512;10.206;2024-03-08T00:06:49;20.00;;;12.05;;
45728;SDS011;31439;53.512;10.206;2024-03-08T00:09:15;28.42;;;12.70;;
45728;SDS011;31439;53.512;10.206;2024-03-08T00:11:41;20.15;;;12.15;;
45728;SDS011;31439;53.512;10.206;2024-03-08T00:14:08;26.55;;;12.60;;
45728;SDS011;31439;53.512;10.206;2024-03-08T00:16:34;23.45;;;12.15;;
45728;SDS011;31439;53.512;10.206;2024-03-08T00:19:00;21.10;;;12.52;;
45728;SDS011;31439;53.512;10.206;2024-03-08T00:21:26;24.30;;;12.63;;
45728;SDS011;31439;53.512;10.206;2024-03-08T00:23:53;25.08;;;13.05;;
45728;SDS011;31439;53.512;10.206;2024-03-08T00:26:20;21.02;;;12.02;;
45728;SDS011;31439;53.512;10.206;2024-03-08T00:28:47;25.30;;;13.40;;
45728;SDS011;31439;53.512;10.206;2024-03-08T00:31:13;24.05;;;12.98;;
45728;SDS011;31439;53.512;10.206;2024-03-08T00:33:41;21.95;;;12.35;;
45728;SDS011;31439;53.512;10.206;2024-03-08T00:36:08;22.17;;;12.45;;
45728;SDS011;31439;53.512;10.206;2024-03-08T00:38:34;22.27;;;13.25;;
45728;SDS011;31439;53.512;10.206;2024-03-08T00:41:00;20.40;;;12.65;;
45728;SDS011;31439;53.512;10.206;2024-03-08T00:43:27;22.35;;;13.48;;
45728;SDS011;31439;53.512;10.206;2024-03-08T00:45:55;21.85;;;12.60;;
45728;SDS011;31439;53.512;10.206;2024-03-08T00:48:21;23.17;;;13.55;;
45728;SDS011;31439;53.512;10.206;2024-03-08T00:50:47;23.25;;;13.20;;
45728;SDS011;31439;53.512;10.206;2024-03-08T00:53:13;22.63;;;13.05;;
45728;SDS011;31439;53.512;10.206;2024-03-08T00:55:39;24.58;;;12.93;;
45728;SDS011;31439;53.512;10.206;2024-03-08T00:58:05;21.92;;;13.02;;
45728;SDS011;31439;53.512;10.206;2024-03-08T01:00:31;22.35;;;12.63;;
45728;SDS011;31439;53.512;10.206;2024-03-08T01:02:58;20.50;;;12.88;;
45728;SDS011;31439;53.512;10.206;2024-03-08T01:05:25;22.83;;;13.43;;
45728;SDS011;31439;53.512;10.206;2024-03-08T01:07:51;21.88;;;13.10;;
45728;SDS011;31439;53.512;10.206;2024-03-08T01:10:17;24.88;;;13.48;;
45728;SDS011;31439;53.512;10.206;2024-03-08T01:12:43;21.98;;;13.10;;
45728;SDS011;31439;53.512;10.206;2024-03-08T01:15:10;23.83;;;13.60;;
45728;SDS011;31439;53.512;10.206;2024-03-08T01:17:36;22.80;;;13.75;;
45728;SDS011;31439;53.512;10.206;2024-03-08T01:20:03;24.50;;;13.25;;
45728;SDS011;31439;53.512;10.206;2024-03-08T01:22:29;22.13;;;12.38;;
45728;SDS011;31439;53.512;10.206;2024-03-08T01:24:56;22.13;;;12.02;;
45728;SDS011;31439;53.512;10.206;2024-03-08T01:27:22;23.15;;;13.60;;
45728;SDS011;31439;53.512;10.206;2024-03-08T01:29:49;25.13;;;13.25;;
45728;SDS011;31439;53.512;10.206;2024-03-08T01:32:15;22.30;;;12.88;;
45728;SDS011;31439;53.512;10.206;2024-03-08T01:34:42;21.27;;;12.60;;
45728;SDS011;31439;53.512;10.206;2024-03-08T01:37:10;24.38;;;13.35;;
45728;SDS011;31439;53.512;10.206;2024-03-08T01:39:36;24.88;;;13.35;;
45728;SDS011;31439;53.512;10.206;2024-03-08T01:42:02;22.45;;;13.32;;
45728;SDS011;31439;53.512;10.206;2024-03-08T01:44:29;25.38;;;13.27;;
45728;SDS011;31439;53.512;10.206;2024-03-08T01:46:55;27.40;;;13.35;;
45728;SDS011;31439;53.512;10.206;2024-03-08T01:49:21;22.70;;;12.05;;
45728;SDS011;31439;53.512;10.206;2024-03-08T01:51:48;25.17;;;13.20;;
45728;SDS011;31439;53.512;10.206;2024-03-08T01:54:16;22.33;;;13.18;;
45728;SDS011;31439;53.512;10.206;2024-03-08T01:56:42;21.95;;;13.15;;
45728;SDS011;31439;53.512;10.206;2024-03-08T01:59:08;23.38;;;12.82;;
45728;SDS011;31439;53.512;10.206;2024-03-08T02:01:35;26.35;;;14.50;;
45728;SDS011;31439;53.512;10.206;2024-03-08T02:04:01;29.65;;;13.63;;
45728;SDS011;31439;53.512;10.206;2024-03-08T02:06:27;25.00;;;13.60;;
45728;SDS011;31439;53.512;10.206;2024-03-08T02:08:53;22.00;;;13.77;;
45728;SDS011;31439;53.512;10.206;2024-03-08T02:11:19;23.95;;;12.80;;
45728;SDS011;31439;53.512;10.206;2024-03-08T02:13:45;23.27;;;13.80;;
45728;SDS011;31439;53.512;10.206;2024-03-08T02:16:11;21.52;;;12.90;;
45728;SDS011;31439;53.512;10.206;2024-03-08T02:18:38;22.52;;;12.95;;
45728;SDS011;31439;53.512;10.206;2024-03-08T02:21:05;22.70;;;13.13;;
45728;SDS011;31439;53.512;10.206;2024-03-08T02:23:31;22.67;;;13.32;;
45728;SDS011;31439;53.512;10.206;2024-03-08T02:25:58;24.70;;;14.07;;
45728;SDS011;31439;53.512;10.206;2024-03-08T02:28:24;24.77;;;14.13;;
45728;SDS011;31439;53.512;10.206;2024-03-08T02:30:50;21.08;;;13.15;;
45728;SDS011;31439;53.512;10.206;2024-03-08T02:33:19;26.55;;;13.70;;
45728;SDS011;31439;53.512;10.206;2024-03-08T02:35:46;25.98;;;14.05;;
45728;SDS011;31439;53.512;10.206;2024-03-08T02:38:16;25.60;;;14.00;;
45728;SDS011;31439;53.512;10.206;2024-03-08T02:40:42;23.10;;;13.40;;
45728;SDS011;31439;53.512;10.206;2024-03-08T02:43:09;24.35;;;14.15;;
45728;SDS011;31439;53.512;10.206;2024-03-08T02:45:38;24.35;;;14.27;;
45728;SDS011;31439;53.512;10.206;2024-03-08T02:48:04;24.38;;;13.75;;
45728;SDS011;31439;53.512;10.206;2024-03-08T02:50:34;26.33;;;14.00;;
45728;SDS011;31439;53.512;10.206;2024-03-08T02:53:00;26.42;;;14.27;;
45728;SDS011;31439;53.512;10.206;2024-03-08T02:55:26;28.45;;;14.90;;
45728;SDS011;31439;53.512;10.206;2024-03-08T02:57:52;27.05;;;14.77;;
45728;SDS011;31439;53.512;10.206;2024-03-08T03:00:21;26.02;;;13.95;;
45728;SDS011;31439;53.512;10.206;2024-03-08T03:02:48;30.60;;;14.98;;
45728;SDS011;31439;53.512;10.206;2024-03-08T03:05:19;25.50;;;15.00;;
45728;SDS011;31439;53.512;10.206;2024-03-08T03:07:45;28.85;;;14.70;;
45728;SDS011;31439;53.512;10.206;2024-03-08T03:10:11;28.17;;;14.75;;
45728;SDS011;31439;53.512;10.206;2024-03-08T03:12:37;27.40;;;14.57;;
45728;SDS011;31439;53.512;10.206;2024-03-08T03:15:04;23.33;;;13.80;;
45728;SDS011;31439;53.512;10.206;2024-03-08T03:17:31;25.58;;;14.43;;
45728;SDS011;31439;53.512;10.206;2024-03-08T03:19:57;27.25;;;14.77;;
45728;SDS011;31439;53.512;10.206;2024-03-08T03:22:23;27.42;;;14.82;;
45728;SDS011;31439;53.512;10.206;2024-03-08T03:24:50;24.05;;;14.00;;
45728;SDS011;31439;53.512;10.206;2024-03-08T03:27:17;25.48;;;14.52;;
45728;SDS011;31439;53.512;10.206;2024-03-08T03:29:43;24.60;;;14.07;;
45728;SDS011;31439;53.512;10.206;2024-03-08T03:32:14;26.33;;;14.90;;
45728;SDS011;31439;53.512;10.206;2024-03-08T03:34:43;24.17;;;13.85;;
45728;SDS011;31439;53.512;10.206;2024-03-08T03:37:09;23.38;;;13.45;;
45728;SDS011;31439;53.512;10.206;2024-03-08T03:39:39;26.80;;;14.40;;
45728;SDS011;31439;53.512;10.206;2024-03-08T03:44:39;26.38;;;14.25;;
45728;SDS011;31439;53.512;10.206;2024-03-08T03:47:06;28.45;;;15.20;;
45728;SDS011;31439;53.512;10.206;2024-03-08T03:49:32;25.67;;;13.50;;
45728;SDS011;31439;53.512;10.206;2024-03-08T03:51:58;26.48;;;14.55;;
45728;SDS011;31439;53.512;10.206;2024-03-08T03:54:25;28.40;;;15.07;;
45728;SDS011;31439;53.512;10.206;2024-03-08T03:56:51;25.33;;;14.60;;
45728;SDS011;31439;53.512;10.206;2024-03-08T03:59:18;27.38;;;14.55;;
45728;SDS011;31439;53.512;10.206;2024-03-08T04:01:44;25.92;;;14.15;;
45728;SDS011;31439;53.512;10.206;2024-03-08T04:04:10;26.60;;;14.38;;
45728;SDS011;31439;53.512;10.206;2024-03-08T04:06:37;24.63;;;14.02;;
45728;SDS011;31439;53.512;10.206;2024-03-08T04:09:03;27.80;;;14.82;;
45728;SDS011;31439;53.512;10.206;2024-03-08T04:11:29;26.63;;;14.65;;
45728;SDS011;31439;53.512;10.206;2024-03-08T04:13:55;28.92;;;14.52;;
45728;SDS011;31439;53.512;10.206;2024-03-08T04:16:22;32.22;;;15.02;;
45728;SDS011;31439;53.512;10.206;2024-03-08T04:18:48;27.75;;;14.30;;
45728;SDS011;31439;53.512;10.206;2024-03-08T04:21:14;26.73;;;15.30;;
45728;SDS011;31439;53.512;10.206;2024-03-08T04:23:41;25.35;;;13.75;;
45728;SDS011;31439;53.512;10.206;2024-03-08T04:26:10;26.27;;;14.70;;
45728;SDS011;31439;53.512;10.206;2024-03-08T04:28:36;26.70;;;14.70;;
45728;SDS011;31439;53.512;10.206;2024-03-08T04:31:03;29.60;;;14.32;;
45728;SDS011;31439;53.512;10.206;2024-03-08T04:33:29;27.92;;;15.50;;
45728;SDS011;31439;53.512;10.206;2024-03-08T04:35:55;27.35;;;13.90;;
45728;SDS011;31439;53.512;10.206;2024-03-08T04:38:21;26.15;;;14.38;;
45728;SDS011;31439;53.512;10.206;2024-03-08T04:40:48;25.23;;;14.10;;
45728;SDS011;31439;53.512;10.206;2024-03-08T04:43:14;30.00;;;14.57;;
45728;SDS011;31439;53.512;10.206;2024-03-08T04:45:43;28.02;;;13.95;;
45728;SDS011;31439;53.512;10.206;2024-03-08T04:48:09;29.33;;;15.07;;
45728;SDS011;31439;53.512;10.206;2024-03-08T04:50:36;30.67;;;15.38;;
45728;SDS011;31439;53.512;10.206;2024-03-08T04:53:03;24.83;;;14.23;;
45728;SDS011;31439;53.512;10.206;2024-03-08T04:55:33;26.80;;;14.32;;
45728;SDS011;31439;53.512;10.206;2024-03-08T04:57:59;30.35;;;14.98;;
45728;SDS011;31439;53.512;10.206;2024-03-08T05:00:25;26.77;;;14.63;;
45728;SDS011;31439;53.512;10.206;2024-03-08T05:02:51;27.50;;;14.55;;
45728;SDS011;31439;53.512;10.206;2024-03-08T05:05:18;29.42;;;14.98;;
45728;SDS011;31439;53.512;10.206;2024-03-08T05:07:44;28.67;;;15.68;;
45728;SDS011;31439;53.512;10.206;2024-03-08T05:10:10;30.77;;;14.50;;
45728;SDS011;31439;53.512;10.206;2024-03-08T05:12:37;27.30;;;15.20;;
45728;SDS011;31439;53.512;10.206;2024-03-08T05:15:06;28.73;;;14.30;;
45728;SDS011;31439;53.512;10.206;2024-03-08T05:17:32;30.88;;;14.98;;
45728;SDS011;31439;53.512;10.206;2024-03-08T05:19:58;24.65;;;14.10;;
45728;SDS011;31439;53.512;10.206;2024-03-08T05:22:24;24.73;;;14.32;;
45728;SDS011;31439;53.512;10.206;2024-03-08T05:24:51;28.50;;;14.88;;
45728;SDS011;31439;53.512;10.206;2024-03-08T05:27:17;27.88;;;14.65;;
45728;SDS011;31439;53.512;10.206;2024-03-08T05:29:43;25.98;;;14.40;;
45728;SDS011;31439;53.512;10.206;2024-03-08T05:32:09;28.98;;;14.85;;
45728;SDS011;31439;53.512;10.206;2024-03-08T05:34:35;23.92;;;14.18;;
45728;SDS011;31439;53.512;10.206;2024-03-08T05:37:01;30.70;;;16.08;;
45728;SDS011;31439;53.512;10.206;2024-03-08T05:39:28;28.23;;;14.68;;
45728;SDS011;31439;53.512;10.206;2024-03-08T05:41:54;26.80;;;15.25;;
45728;SDS011;31439;53.512;10.206;2024-03-08T05:44:20;29.08;;;14.85;;
45728;SDS011;31439;53.512;10.206;2024-03-08T05:46:47;30.50;;;14.68;;
45728;SDS011;31439;53.512;10.206;2024-03-08T05:49:13;25.98;;;14.07;;
45728;SDS011;31439;53.512;10.206;2024-03-08T05:51:39;24.65;;;14.18;;
45728;SDS011;31439;53.512;10.206;2024-03-08T05:54:07;28.65;;;14.93;;
45728;SDS011;31439;53.512;10.206;2024-03-08T05:56:36;26.70;;;13.93;;
45728;SDS011;31439;53.512;10.206;2024-03-08T05:59:02;24.75;;;14.27;;
45728;SDS011;31439;53.512;10.206;2024-03-08T06:01:28;28.38;;;14.40;;
45728;SDS011;31439;53.512;10.206;2024-03-08T06:03:56;31.35;;;15.73;;
45728;SDS011;31439;53.512;10.206;2024-03-08T06:06:22;26.15;;;14.43;;
45728;SDS011;31439;53.512;10.206;2024-03-08T06:08:49;27.23;;;15.45;;
45728;SDS011;31439;53.512;10.206;2024-03-08T06:11:15;27.80;;;15.18;;
45728;SDS011;31439;53.512;10.206;2024-03-08T06:13:42;29.38;;;14.95;;
45728;SDS011;31439;53.512;10.206;2024-03-08T06:16:08;31.63;;;15.40;;
45728;SDS011;31439;53.512;10.206;2024-03-08T06:18:35;28.50;;;15.85;;
45728;SDS011;31439;53.512;10.206;2024-03-08T06:21:07;28.35;;;15.27;;
45728;SDS011;31439;53.512;10.206;2024-03-08T06:23:37;30.33;;;15.63;;
45728;SDS011;31439;53.512;10.206;2024-03-08T06:26:06;31.15;;;14.93;;
45728;SDS011;31439;53.512;10.206;2024-03-08T06:28:32;27.77;;;15.50;;
45728;SDS011;31439;53.512;10.206;2024-03-08T06:30:59;31.98;;;14.98;;
45728;SDS011;31439;53.512;10.206;2024-03-08T06:33:25;28.77;;;15.60;;
45728;SDS011;31439;53.512;10.206;2024-03-08T06:35:52;29.67;;;15.43;;
45728;SDS011;31439;53.512;10.206;2024-03-08T06:38:19;25.55;;;14.45;;
45728;SDS011;31439;53.512;10.206;2024-03-08T06:40:45;30.50;;;15.35;;
45728;SDS011;31439;53.512;10.206;2024-03-08T06:43:13;26.42;;;15.13;;
45728;SDS011;31439;53.512;10.206;2024-03-08T06:45:41;30.27;;;15.80;;
45728;SDS011;31439;53.512;10.206;2024-03-08T06:48:13;30.00;;;15.43;;
45728;SDS011;31439;53.512;10.206;2024-03-08T06:50:39;31.33;;;16.23;;
45728;SDS011;31439;53.512;10.206;2024-03-08T06:53:05;31.45;;;16.85;;
45728;SDS011;31439;53.512;10.206;2024-03-08T06:55:31;30.83;;;16.73;;
45728;SDS011;31439;53.512;10.206;2024-03-08T06:57:58;30.17;;;17.08;;
45728;SDS011;31439;53.512;10.206;2024-03-08T07:00:24;31.00;;;17.25;;
45728;SDS011;31439;53.512;10.206;2024-03-08T07:02:52;30.90;;;16.83;;
45728;SDS011;31439;53.512;10.206;2024-03-08T07:05:19;30.55;;;16.20;;
45728;SDS011;31439;53.512;10.206;2024-03-08T07:07:45;31.27;;;17.45;;
45728;SDS011;31439;53.512;10.206;2024-03-08T07:10:14;31.08;;;17.40;;
45728;SDS011;31439;53.512;10.206;2024-03-08T07:12:41;28.20;;;15.23;;
45728;SDS011;31439;53.512;10.206;2024-03-08T07:15:07;32.50;;;17.00;;
45728;SDS011;31439;53.512;10.206;2024-03-08T07:17:38;31.38;;;17.45;;
45728;SDS011;31439;53.512;10.206;2024-03-08T07:20:05;29.38;;;16.27;;
45728;SDS011;31439;53.512;10.206;2024-03-08T07:22:32;28.27;;;15.50;;
45728;SDS011;31439;53.512;10.206;2024-03-08T07:24:59;31.25;;;15.85;;
45728;SDS011;31439;53.512;10.206;2024-03-08T07:27:43;31.10;;;17.05;;
45728;SDS011;31439;53.512;10.206;2024-03-08T07:30:11;29.30;;;16.65;;
45728;SDS011;31439;53.512;10.206;2024-03-08T07:32:37;31.23;;;17.45;;
45728;SDS011;31439;53.512;10.206;2024-03-08T07:35:03;31.83;;;17.05;;
45728;SDS011;31439;53.512;10.206;2024-03-08T07:37:30;31.15;;;16.98;;
45728;SDS011;31439;53.512;10.206;2024-03-08T07:39:56;33.03;;;17.52;;
45728;SDS011;31439;53.512;10.206;2024-03-08T07:42:23;28.90;;;17.00;;
45728;SDS011;31439;53.512;10.206;2024-03-08T07:44:49;31.45;;;17.45;;
45728;SDS011;31439;53.512;10.206;2024-03-08T07:47:15;34.03;;;17.70;;
45728;SDS011;31439;53.512;10.206;2024-03-08T07:49:43;33.05;;;18.30;;
45728;SDS011;31439;53.512;10.206;2024-03-08T07:52:10;35.20;;;18.77;;
45728;SDS011;31439;53.512;10.206;2024-03-08T07:54:40;34.47;;;20.33;;
45728;SDS011;31439;53.512;10.206;2024-03-08T07:57:06;30.83;;;17.88;;
45728;SDS011;31439;53.512;10.206;2024-03-08T07:59:33;33.08;;;18.85;;
45728;SDS011;31439;53.512;10.206;2024-03-08T08:01:59;38.63;;;18.95;;
45728;SDS011;31439;53.512;10.206;2024-03-08T08:04:25;37.35;;;19.48;;
45728;SDS011;31439;53.512;10.206;2024-03-08T08:06:52;38.35;;;21.05;;
45728;SDS011;31439;53.512;10.206;2024-03-08T08:09:20;35.90;;;18.65;;
45728;SDS011;31439;53.512;10.206;2024-03-08T08:11:54;34.92;;;19.50;;
45728;SDS011;31439;53.512;10.206;2024-03-08T08:14:20;38.17;;;20.48;;
45728;SDS011;31439;53.512;10.206;2024-03-08T08:16:46;35.35;;;19.20;;
45728;SDS011;31439;53.512;10.206;2024-03-08T08:19:14;38.88;;;19.92;;
45728;SDS011;31439;53.512;10.206;2024-03-08T08:21:40;36.15;;;20.40;;
45728;SDS011;31439;53.512;10.206;2024-03-08T08:24:06;36.03;;;19.75;;
45728;SDS011;31439;53.512;10.206;2024-03-08T08:26:33;41.67;;;21.85;;
45728;SDS011;31439;53.512;10.206;2024-03-08T08:28:59;34.33;;;18.90;;
45728;SDS011;31439;53.512;10.206;2024-03-08T08:31:25;35.95;;;18.40;;
45728;SDS011;31439;53.512;10.206;2024-03-08T08:33:52;33.85;;;18.35;;
45728;SDS011;31439;53.512;10.206;2024-03-08T08:36:26;32.20;;;17.90;;
45728;SDS011;31439;53.512;10.206;2024-03-08T08:38:54;31.50;;;18.13;;
45728;SDS011;31439;53.512;10.206;2024-03-08T08:41:22;34.35;;;18.70;;
45728;SDS011;31439;53.512;10.206;2024-03-08T08:43:48;31.20;;;19.13;;
45728;SDS011;31439;53.512;10.206;2024-03-08T08:46:18;32.65;;;18.60;;
45728;SDS011;31439;53.512;10.206;2024-03-08T08:48:44;31.85;;;18.35;;
45728;SDS011;31439;53.512;10.206;2024-03-08T08:51:11;31.48;;;18.40;;
45728;SDS011;31439;53.512;10.206;2024-03-08T08:53:40;34.60;;;18.80;;
45728;SDS011;31439;53.512;10.206;2024-03-08T08:56:08;33.40;;;18.13;;
45728;SDS011;31439;53.512;10.206;2024-03-08T08:58:37;32.25;;;18.67;;
45728;SDS011;31439;53.512;10.206;2024-03-08T09:01:04;31.40;;;17.40;;
45728;SDS011;31439;53.512;10.206;2024-03-08T09:03:30;33.40;;;18.75;;
45728;SDS011;31439;53.512;10.206;2024-03-08T09:05:56;33.75;;;17.55;;
45728;SDS011;31439;53.512;10.206;2024-03-08T09:08:23;30.70;;;17.70;;
45728;SDS011;31439;53.512;10.206;2024-03-08T09:10:49;31.40;;;18.52;;
45728;SDS011;31439;53.512;10.206;2024-03-08T09:13:16;29.65;;;16.90;;
45728;SDS011;31439;53.512;10.206;2024-03-08T09:15:43;32.70;;;18.48;;
45728;SDS011;31439;53.512;10.206;2024-03-08T09:18:09;29.40;;;17.40;;
45728;SDS011;31439;53.512;10.206;2024-03-08T09:20:35;34.70;;;17.90;;
45728;SDS011;31439;53.512;10.206;2024-03-08T09:23:02;28.50;;;16.73;;
45728;SDS011;31439;53.512;10.206;2024-03-08T09:25:29;30.48;;;17.25;;
45728;SDS011;31439;53.512;10.206;2024-03-08T09:27:55;31.23;;;17.65;;
45728;SDS011;31439;53.512;10.206;2024-03-08T09:30:21;29.63;;;16.45;;
45728;SDS011;31439;53.512;10.206;2024-03-08T09:32:47;31.00;;;17.23;;
45728;SDS011;31439;53.512;10.206;2024-03-08T09:35:16;30.58;;;17.27;;
45728;SDS011;31439;53.512;10.206;2024-03-08T09:37:42;30.50;;;17.38;;
45728;SDS011;31439;53.512;10.206;2024-03-08T09:40:08;31.23;;;16.85;;
45728;SDS011;31439;53.512;10.206;2024-03-08T09:42:37;26.65;;;16.58;;
45728;SDS011;31439;53.512;10.206;2024-03-08T09:45:08;27.60;;;16.50;;
45728;SDS011;31439;53.512;10.206;2024-03-08T09:47:35;29.42;;;17.50;;
45728;SDS011;31439;53.512;10.206;2024-03-08T09:50:04;28.33;;;16.50;;
45728;SDS011;31439;53.512;10.206;2024-03-08T09:52:30;29.42;;;18.02;;
45728;SDS011;31439;53.512;10.206;2024-03-08T09:54:57;28.05;;;16.73;;
45728;SDS011;31439;53.512;10.206;2024-03-08T09:57:25;27.80;;;16.30;;
45728;SDS011;31439;53.512;10.206;2024-03-08T09:59:51;28.00;;;16.85;;
45728;SDS011;31439;53.512;10.206;2024-03-08T10:02:17;26.75;;;16.08;;
45728;SDS011;31439;53.512;10.206;2024-03-08T10:04:44;28.08;;;16.27;;
45728;SDS011;31439;53.512;10.206;2024-03-08T10:07:11;25.83;;;16.05;;
45728;SDS011;31439;53.512;10.206;2024-03-08T10:09:38;28.70;;;18.15;;
45728;SDS011;31439;53.512;10.206;2024-03-08T10:12:04;30.75;;;17.38;;
45728;SDS011;31439;53.512;10.206;2024-03-08T10:14:30;33.97;;;17.50;;
45728;SDS011;31439;53.512;10.206;2024-03-08T10:16:57;29.20;;;17.10;;
45728;SDS011;31439;53.512;10.206;2024-03-08T10:19:25;30.15;;;16.85;;
45728;SDS011;31439;53.512;10.206;2024-03-08T10:21:51;28.80;;;16.25;;
45728;SDS011;31439;53.512;10.206;2024-03-08T10:24:25;25.25;;;16.15;;
45728;SDS011;31439;53.512;10.206;2024-03-08T10:26:52;31.92;;;17.02;;
45728;SDS011;31439;53.512;10.206;2024-03-08T10:29:18;27.30;;;15.98;;
45728;SDS011;31439;53.512;10.206;2024-03-08T10:31:44;28.23;;;17.30;;
45728;SDS011;31439;53.512;10.206;2024-03-08T10:34:11;27.13;;;16.95;;
45728;SDS011;31439;53.512;10.206;2024-03-08T10:36:37;27.17;;;15.40;;
45728;SDS011;31439;53.512;10.206;2024-03-08T10:39:07;29.05;;;16.10;;
45728;SDS011;31439;53.512;10.206;2024-03-08T10:41:35;25.45;;;16.50;;
45728;SDS011;31439;53.512;10.206;2024-03-08T10:44:19;26.70;;;16.13;;
45728;SDS011;31439;53.512;10.206;2024-03-08T10:49:30;25.17;;;15.93;;
45728;SDS011;31439;53.512;10.206;2024-03-08T10:51:59;32.75;;;15.63;;
45728;SDS011;31439;53.512;10.206;2024-03-08T10:54:26;24.60;;;15.50;;
45728;SDS011;31439;53.512;10.206;2024-03-08T10:56:53;24.17;;;15.05;;
45728;SDS011;31439;53.512;10.206;2024-03-08T10:59:20;25.73;;;16.25;;
45728;SDS011;31439;53.512;10.206;2024-03-08T11:01:46;24.55;;;15.77;;
45728;SDS011;31439;53.512;10.206;2024-03-08T11:04:12;24.55;;;14.93;;
45728;SDS011;31439;53.512;10.206;2024-03-08T11:09:08;24.17;;;15.48;;
45728;SDS011;31439;53.512;10.206;2024-03-08T11:11:38;26.15;;;14.23;;
45728;SDS011;31439;53.512;10.206;2024-03-08T11:14:08;26.70;;;15.10;;
45728;SDS011;31439;53.512;10.206;2024-03-08T11:16:53;23.63;;;15.35;;
45728;SDS011;31439;53.512;10.206;2024-03-08T11:21:45;25.80;;;15.13;;
45728;SDS011;31439;53.512;10.206;2024-03-08T11:24:13;25.92;;;14.57;;
45728;SDS011;31439;53.512;10.206;2024-03-08T11:26:41;28.63;;;14.85;;
45728;SDS011;31439;53.512;10.206;2024-03-08T11:31:53;23.98;;;13.95;;
45728;SDS011;31439;53.512;10.206;2024-03-08T11:34:30;27.40;;;15.07;;
45728;SDS011;31439;53.512;10.206;2024-03-08T11:36:56;23.17;;;14.85;;
45728;SDS011;31439;53.512;10.206;2024-03-08T11:39:22;22.30;;;13.95;;
45728;SDS011;31439;53.512;10.206;2024-03-08T11:41:49;21.45;;;13.38;;
45728;SDS011;31439;53.512;10.206;2024-03-08T11:44:16;23.80;;;13.98;;
45728;SDS011;31439;53.512;10.206;2024-03-08T11:46:42;21.50;;;12.90;;
45728;SDS011;31439;53.512;10.206;2024-03-08T11:49:13;20.33;;;13.50;;
45728;SDS011;31439;53.512;10.206;2024-03-08T11:51:39;25.23;;;13.43;;
45728;SDS011;31439;53.512;10.206;2024-03-08T11:54:06;21.77;;;13.30;;
45728;SDS011;31439;53.512;10.206;2024-03-08T11:56:32;23.55;;;13.25;;
45728;SDS011;31439;53.512;10.206;2024-03-08T11:58:59;24.92;;;14.57;;
45728;SDS011;31439;53.512;10.206;2024-03-08T12:01:26;23.75;;;13.48;;
45728;SDS011;31439;53.512;10.206;2024-03-08T12:03:56;25.05;;;12.88;;
45728;SDS011;31439;53.512;10.206;2024-03-08T12:06:26;21.42;;;13.18;;
45728;SDS011;31439;53.512;10.206;2024-03-08T12:08:54;22.00;;;13.68;;
45728;SDS011;31439;53.512;10.206;2024-03-08T12:11:20;20.48;;;13.00;;
45728;SDS011;31439;53.512;10.206;2024-03-08T12:13:49;22.10;;;13.77;;
45728;SDS011;31439;53.512;10.206;2024-03-08T12:16:17;22.30;;;13.73;;
45728;SDS011;31439;53.512;10.206;2024-03-08T12:18:43;23.33;;;13.75;;
45728;SDS011;31439;53.512;10.206;2024-03-08T12:21:11;21.65;;;13.98;;
45728;SDS011;31439;53.512;10.206;2024-03-08T12:23:45;23.17;;;13.63;;
45728;SDS011;31439;53.512;10.206;2024-03-08T12:26:16;24.73;;;15.07;;
45728;SDS011;31439;53.512;10.206;2024-03-08T12:28:43;22.55;;;14.25;;
45728;SDS011;31439;53.512;10.206;2024-03-08T12:31:10;21.27;;;14.50;;
45728;SDS011;31439;53.512;10.206;2024-03-08T12:33:37;26.33;;;14.93;;
45728;SDS011;31439;53.512;10.206;2024-03-08T12:36:14;23.42;;;14.20;;
45728;SDS011;31439;53.512;10.206;2024-03-08T12:38:43;22.20;;;13.77;;
45728;SDS011;31439;53.512;10.206;2024-03-08T12:41:12;19.88;;;13.68;;
45728;SDS011;31439;53.512;10.206;2024-03-08T12:43:38;22.38;;;13.32;;
45728;SDS011;31439;53.512;10.206;2024-03-08T12:46:04;21.35;;;12.82;;
45728;SDS011;31439;53.512;10.206;2024-03-08T12:48:37;22.35;;;13.45;;
45728;SDS011;31439;53.512;10.206;2024-03-08T12:51:06;20.85;;;13.07;;
45728;SDS011;31439;53.512;10.206;2024-03-08T12:53:32;23.38;;;13.50;;
45728;SDS011;31439;53.512;10.206;2024-03-08T12:55:58;20.90;;;12.88;;
45728;SDS011;31439;53.512;10.206;2024-03-08T12:58:24;18.70;;;12.05;;
45728;SDS011;31439;53.512;10.206;2024-03-08T13:00:51;19.33;;;12.63;;
45728;SDS011;31439;53.512;10.206;2024-03-08T13:03:17;19.23;;;12.35;;
45728;SDS011;31439;53.512;10.206;2024-03-08T13:05:43;16.83;;;11.90;;
45728;SDS011;31439;53.512;10.206;2024-03-08T13:08:10;19.73;;;12.32;;
45728;SDS011;31439;53.512;10.206;2024-03-08T13:10:40;19.75;;;12.18;;
45728;SDS011;31439;53.512;10.206;2024-03-08T13:13:11;18.25;;;12.05;;
45728;SDS011;31439;53.512;10.206;2024-03-08T13:15:40;20.80;;;12.93;;
45728;SDS011;31439;53.512;10.206;2024-03-08T13:18:07;20.52;;;12.55;;
45728;SDS011;31439;53.512;10.206;2024-03-08T13:20:34;23.35;;;13.40;;
45728;SDS011;31439;53.512;10.206;2024-03-08T13:23:03;21.67;;;13.05;;
45728;SDS011;31439;53.512;10.206;2024-03-08T13:25:33;19.60;;;12.38;;
45728;SDS011;31439;53.512;10.206;2024-03-08T13:27:59;20.00;;;11.85;;
45728;SDS011;31439;53.512;10.206;2024-03-08T13:30:26;20.25;;;12.73;;
45728;SDS011;31439;53.512;10.206;2024-03-08T13:32:52;20.63;;;13.00;;
45728;SDS011;31439;53.512;10.206;2024-03-08T13:35:19;19.77;;;12.20;;
45728;SDS011;31439;53.512;10.206;2024-03-08T13:37:49;18.08;;;12.23;;
45728;SDS011;31439;53.512;10.206;2024-03-08T13:40:16;19.67;;;12.05;;
45728;SDS011;31439;53.512;10.206;2024-03-08T13:42:46;19.58;;;12.65;;
45728;SDS011;31439;53.512;10.206;2024-03-08T13:45:14;18.48;;;11.60;;
45728;SDS011;31439;53.512;10.206;2024-03-08T13:47:43;19.85;;;12.40;;
45728;SDS011;31439;53.512;10.206;2024-03-08T13:50:09;17.90;;;11.88;;
45728;SDS011;31439;53.512;10.206;2024-03-08T13:52:43;19.27;;;12.52;;
45728;SDS011;31439;53.512;10.206;2024-03-08T13:55:09;20.33;;;12.32;;
45728;SDS011;31439;53.512;10.206;2024-03-08T13:57:37;17.65;;;11.88;;
45728;SDS011;31439;53.512;10.206;2024-03-08T14:00:03;19.50;;;12.20;;
45728;SDS011;31439;53.512;10.206;2024-03-08T14:02:31;20.70;;;12.68;;
45728;SDS011;31439;53.512;10.206;2024-03-08T14:04:58;18.85;;;11.88;;
45728;SDS011;31439;53.512;10.206;2024-03-08T14:07:26;17.02;;;11.45;;
45728;SDS011;31439;53.512;10.206;2024-03-08T14:09:54;18.85;;;11.77;;
45728;SDS011;31439;53.512;10.206;2024-03-08T14:12:20;16.75;;;10.77;;
45728;SDS011;31439;53.512;10.206;2024-03-08T14:14:46;18.25;;;11.18;;
45728;SDS011;31439;53.512;10.206;2024-03-08T14:17:12;17.30;;;11.25;;
45728;SDS011;31439;53.512;10.206;2024-03-08T14:19:42;15.95;;;10.45;;
45728;SDS011;31439;53.512;10.206;2024-03-08T14:22:08;17.98;;;10.40;;